createdAt,value
2022-12-14T00:01:25.548Z,97700.44
2022-12-14T00:03:53.263Z,97704.63
2022-12-14T00:06:22.477Z,97711.44
2022-12-14T00:08:51.710Z,97707.19
2022-12-14T00:11:19.928Z,97724.25
2022-12-14T00:13:48.887Z,97722.53
2022-12-14T00:16:18.492Z,97730.22
2022-12-14T00:18:50.897Z,97733.59
2022-12-14T00:21:17.430Z,97737.88
2022-12-14T00:23:45.916Z,97742.16
2022-12-14T00:26:17.570Z,97732.78
2022-12-14T00:28:45.354Z,97743.00
2022-12-14T00:31:12.843Z,97743.84
2022-12-14T00:33:39.477Z,97736.19
2022-12-14T00:36:08.773Z,97743.00
2022-12-14T00:38:36.045Z,97740.44
2022-12-14T00:41:02.765Z,97751.50
2022-12-14T00:43:29.741Z,97759.19
2022-12-14T00:45:56.282Z,97752.41
2022-12-14T00:48:24.619Z,97744.72
2022-12-14T00:50:53.037Z,97737.91
2022-12-14T00:53:20.303Z,97736.22
2022-12-14T00:55:49.104Z,97741.28
2022-12-14T00:58:18.888Z,97742.13
2022-12-14T01:00:45.667Z,97734.47
2022-12-14T01:03:12.992Z,97733.63
2022-12-14T01:05:40.231Z,97748.09
2022-12-14T01:08:07.273Z,97744.69
2022-12-14T01:10:34.265Z,97753.22
2022-12-14T01:13:00.804Z,97754.06
2022-12-14T01:15:27.367Z,97760.06
2022-12-14T01:17:53.931Z,97762.59
2022-12-14T01:20:20.420Z,97771.16
2022-12-14T01:22:47.017Z,97765.16
2022-12-14T01:25:13.564Z,97770.28
2022-12-14T01:27:40.141Z,97772.81
2022-12-14T01:30:07.307Z,97775.41
2022-12-14T01:32:35.087Z,97777.97
2022-12-14T01:35:01.699Z,97783.91
2022-12-14T01:37:28.931Z,97787.34
2022-12-14T01:39:55.750Z,97783.94
2022-12-14T01:42:22.943Z,97783.91
2022-12-14T01:44:56.200Z,97789.88
2022-12-14T01:47:49.005Z,97789.88
2022-12-14T01:50:28.518Z,97793.31
2022-12-14T01:53:00.344Z,97803.53
2022-12-14T01:55:34.709Z,97814.63
2022-12-14T01:58:04.040Z,97822.28
2022-12-14T02:00:30.872Z,97839.34
2022-12-14T02:03:04.417Z,97842.75
2022-12-14T02:05:35.685Z,97843.59
2022-12-14T02:08:03.452Z,97844.44
2022-12-14T02:10:31.246Z,97841.88
2022-12-14T02:13:16.126Z,97841.91
2022-12-14T02:15:43.228Z,97834.22
2022-12-14T02:18:16.975Z,97811.19
2022-12-14T02:21:06.466Z,97826.56
2022-12-14T02:23:43.162Z,97836.75
2022-12-14T02:26:28.418Z,97827.41
2022-12-14T02:29:16.902Z,97817.19
2022-12-14T02:32:15.693Z,97833.38
2022-12-14T02:35:03.145Z,97819.72
2022-12-14T02:37:41.701Z,97827.41
2022-12-14T02:40:08.190Z,97824.84
2022-12-14T02:42:57.836Z,97828.25
2022-12-14T02:45:47.863Z,97824.00
2022-12-14T02:48:19.806Z,97816.31
2022-12-14T02:51:03.492Z,97813.75
2022-12-14T02:53:37.813Z,97820.56
2022-12-14T02:56:09.529Z,97825.69
2022-12-14T02:58:50.493Z,97822.28
2022-12-14T03:01:22.135Z,97826.53
2022-12-14T03:03:48.761Z,97837.63
2022-12-14T03:06:27.926Z,97836.81
2022-12-14T03:09:03.306Z,97843.59
2022-12-14T03:11:58.700Z,97840.16
2022-12-14T03:14:37.881Z,97844.47
2022-12-14T03:17:13.224Z,97844.47
2022-12-14T03:19:49.430Z,97830.81
2022-12-14T03:22:54.458Z,97841.94
2022-12-14T03:25:29.759Z,97836.78
2022-12-14T03:28:21.888Z,97847.00
2022-12-14T03:31:00.774Z,97859.81
2022-12-14T03:33:29.723Z,97860.66
2022-12-14T03:36:14.341Z,97858.94
2022-12-14T03:38:43.607Z,97858.97
2022-12-14T03:41:39.297Z,97862.38
2022-12-14T03:44:24.576Z,97858.13
2022-12-14T03:47:09.706Z,97857.28
2022-12-14T03:49:53.872Z,97875.16
2022-12-14T03:52:36.397Z,97872.59
2022-12-14T03:55:20.601Z,97889.63
2022-12-14T03:58:02.103Z,97862.34
2022-12-14T04:00:32.667Z,97858.97
2022-12-14T04:03:25.198Z,97860.66
2022-12-14T04:05:57.835Z,97858.09
2022-12-14T04:08:41.780Z,97859.78
2022-12-14T04:11:31.491Z,97846.16
2022-12-14T04:14:32.899Z,97840.19
2022-12-14T04:17:24.029Z,97836.78
2022-12-14T04:20:14.125Z,97837.63
2022-12-14T04:22:50.179Z,97837.63
2022-12-14T04:25:41.840Z,97853.84
2022-12-14T04:28:50.382Z,97858.94
2022-12-14T04:31:20.171Z,97865.75
2022-12-14T04:33:53.572Z,97869.16
2022-12-14T04:36:38.370Z,97870.84
2022-12-14T04:39:14.076Z,97867.47
2022-12-14T04:41:44.126Z,97876.00
2022-12-14T04:44:15.887Z,97875.97
2022-12-14T04:46:44.235Z,97875.97
2022-12-14T04:49:23.265Z,97874.31
2022-12-14T04:52:13.039Z,97867.47
2022-12-14T04:54:50.111Z,97872.59
2022-12-14T04:57:27.304Z,97866.63
2022-12-14T04:59:54.524Z,97858.09
2022-12-14T05:02:41.313Z,97857.22
2022-12-14T05:05:25.308Z,97856.38
2022-12-14T05:08:17.665Z,97866.63
2022-12-14T05:10:53.087Z,97873.44
2022-12-14T05:13:48.884Z,97871.72
2022-12-14T05:16:18.501Z,97851.28
2022-12-14T05:18:45.381Z,97850.41
2022-12-14T05:21:31.129Z,97865.72
2022-12-14T05:24:00.237Z,97863.19
2022-12-14T05:26:26.764Z,97859.78
2022-12-14T05:28:53.320Z,97854.66
2022-12-14T05:31:19.993Z,97858.06
2022-12-14T05:33:46.588Z,97848.69
2022-12-14T05:36:13.069Z,97858.09
2022-12-14T05:38:39.558Z,97855.50
2022-12-14T05:41:06.860Z,97862.31
2022-12-14T05:43:33.374Z,97858.09
2022-12-14T05:46:01.100Z,97854.66
2022-12-14T05:48:27.962Z,97864.06
2022-12-14T05:50:54.541Z,97871.72
2022-12-14T05:53:21.140Z,97864.03
2022-12-14T05:55:49.331Z,97871.75
2022-12-14T05:58:16.048Z,97872.56
2022-12-14T06:00:42.646Z,97873.44
2022-12-14T06:03:09.681Z,97866.63
2022-12-14T06:05:36.880Z,97872.59
2022-12-14T06:08:03.397Z,97877.69
2022-12-14T06:10:29.862Z,97879.41
2022-12-14T06:12:57.957Z,97871.69
2022-12-14T06:15:27.192Z,97870.00
2022-12-14T06:17:55.951Z,97875.97
2022-12-14T06:20:22.404Z,97881.06
2022-12-14T06:22:48.923Z,97886.22
2022-12-14T06:25:15.926Z,97891.34
2022-12-14T06:27:42.438Z,97898.13
2022-12-14T06:30:09.850Z,97906.66
2022-12-14T06:32:36.363Z,97902.41
2022-12-14T06:35:03.068Z,97912.66
2022-12-14T06:37:31.236Z,97916.91
2022-12-14T06:39:58.591Z,97922.00
2022-12-14T06:42:25.089Z,97924.56
2022-12-14T06:44:51.674Z,97931.38
2022-12-14T06:47:18.509Z,97928.84
2022-12-14T06:49:45.016Z,97938.19
2022-12-14T06:52:11.527Z,97933.94
2022-12-14T06:54:38.055Z,97929.69
2022-12-14T06:57:04.550Z,97934.81
2022-12-14T06:59:31.046Z,97938.22
2022-12-14T07:01:57.624Z,97939.06
2022-12-14T07:04:24.593Z,97939.91
2022-12-14T07:06:51.065Z,97952.69
2022-12-14T07:09:17.638Z,97950.97
2022-12-14T07:11:44.143Z,97951.00
2022-12-14T07:14:17.434Z,97955.28
2022-12-14T07:16:48.379Z,97957.84
2022-12-14T07:19:15.823Z,97945.91
2022-12-14T07:21:42.308Z,97951.88
2022-12-14T07:24:09.055Z,97951.84
2022-12-14T07:26:36.352Z,97958.66
2022-12-14T07:29:02.846Z,97954.41
2022-12-14T07:31:29.725Z,97956.13
2022-12-14T07:33:59.444Z,97960.41
2022-12-14T07:36:28.804Z,97956.13
2022-12-14T07:38:56.486Z,97961.25
2022-12-14T07:41:30.494Z,97964.69
2022-12-14T07:44:00.950Z,97961.25
2022-12-14T07:46:29.444Z,97967.22
2022-12-14T07:48:58.075Z,97957.84
2022-12-14T07:51:27.696Z,97967.22
2022-12-14T07:53:54.839Z,97976.59
2022-12-14T07:56:27.572Z,97967.22
2022-12-14T07:58:58.767Z,97964.66
2022-12-14T08:01:30.770Z,97969.00
2022-12-14T08:04:12.357Z,97971.50
2022-12-14T08:06:40.140Z,97979.13
2022-12-14T08:09:08.390Z,97974.03
2022-12-14T08:11:35.073Z,97970.66
2022-12-14T08:14:08.356Z,97983.47
2022-12-14T08:16:34.910Z,97986.03
2022-12-14T08:19:01.787Z,97992.00
2022-12-14T08:21:29.391Z,98001.41
2022-12-14T08:23:57.280Z,98009.91
2022-12-14T08:26:28.771Z,98005.66
2022-12-14T08:29:00.129Z,98007.34
2022-12-14T08:31:28.223Z,98004.81
2022-12-14T08:33:54.851Z,98001.41
2022-12-14T08:36:24.472Z,97996.28
2022-12-14T08:38:59.430Z,97998.00
2022-12-14T08:41:26.824Z,97997.16
2022-12-14T08:43:55.844Z,97986.06
2022-12-14T08:46:23.691Z,97984.38
2022-12-14T08:48:52.578Z,97981.81
2022-12-14T08:51:19.780Z,97986.91
2022-12-14T08:53:49.922Z,97992.88
2022-12-14T08:56:19.135Z,97996.28
2022-12-14T08:58:46.322Z,98002.28
2022-12-14T09:01:17.597Z,98013.38
2022-12-14T09:03:45.664Z,98009.94
2022-12-14T09:06:22.270Z,98015.94
2022-12-14T09:08:49.800Z,98021.91
2022-12-14T09:11:18.924Z,98017.63
2022-12-14T09:13:46.921Z,98024.44
2022-12-14T09:16:16.042Z,98021.00
2022-12-14T09:18:43.167Z,98029.56
2022-12-14T09:21:10.529Z,98029.56
2022-12-14T09:23:37.873Z,98036.38
2022-12-14T09:26:11.578Z,98044.94
2022-12-14T09:28:40.619Z,98044.94
2022-12-14T09:31:11.184Z,98046.63
2022-12-14T09:33:38.209Z,98043.19
2022-12-14T09:36:11.945Z,98044.03
2022-12-14T09:38:39.403Z,98060.28
2022-12-14T09:41:18.663Z,98062.84
2022-12-14T09:43:55.700Z,98068.78
2022-12-14T09:46:31.252Z,98065.38
2022-12-14T09:48:58.378Z,98067.09
2022-12-14T09:51:32.440Z,98073.91
2022-12-14T09:54:05.529Z,98078.19
2022-12-14T09:56:33.435Z,98083.28
2022-12-14T09:59:02.076Z,98085.84
2022-12-14T10:05:00.140Z,98085.00
2022-12-14T10:07:47.468Z,98086.69
2022-12-14T10:10:26.685Z,98091.81
2022-12-14T10:13:17.834Z,98079.81
2022-12-14T10:15:53.450Z,98086.56
2022-12-14T10:19:00.545Z,98090.00
2022-12-14T10:21:41.338Z,98087.44
2022-12-14T10:24:15.803Z,98082.28
2022-12-14T10:26:44.195Z,98088.28
2022-12-14T10:29:22.593Z,98086.53
2022-12-14T10:32:10.916Z,98078.78
2022-12-14T10:34:40.769Z,98071.13
2022-12-14T10:37:28.915Z,98074.50
2022-12-14T10:40:17.509Z,98074.50
2022-12-14T10:42:58.593Z,98077.00
2022-12-14T10:45:43.310Z,98080.41
2022-12-14T10:48:40.625Z,98072.59
2022-12-14T10:51:09.932Z,98081.09
2022-12-14T10:53:55.812Z,98063.94
2022-12-14T10:56:30.295Z,98061.34
2022-12-14T10:59:25.337Z,98068.16
2022-12-14T11:02:25.567Z,98071.47
2022-12-14T11:04:56.312Z,98071.50
2022-12-14T11:07:33.448Z,98077.50
2022-12-14T11:10:20.691Z,98088.59
2022-12-14T11:12:59.330Z,98092.06
2022-12-14T11:15:39.617Z,98087.69
2022-12-14T11:18:34.299Z,98095.38
2022-12-14T11:21:05.705Z,98099.66
2022-12-14T11:23:41.251Z,98105.69
2022-12-14T11:26:26.778Z,98121.94
2022-12-14T11:28:56.053Z,98120.16
2022-12-14T11:31:31.689Z,98120.88
2022-12-14T11:33:59.973Z,98131.94
2022-12-14T11:36:28.552Z,98134.41
2022-12-14T11:39:01.114Z,98136.03
2022-12-14T11:41:36.152Z,98140.22
2022-12-14T11:44:14.720Z,98147.00
2022-12-14T11:46:51.390Z,98146.09
2022-12-14T11:49:32.926Z,98150.22
2022-12-14T11:52:01.176Z,98169.97
2022-12-14T11:54:28.987Z,98173.31
2022-12-14T11:57:18.129Z,98180.09
2022-12-14T11:59:57.659Z,98193.88
2022-12-14T12:02:30.139Z,98193.91
2022-12-14T12:05:11.280Z,98189.56
2022-12-14T12:07:54.740Z,98185.25
2022-12-14T12:10:25.811Z,98189.50
2022-12-14T12:12:59.603Z,98186.00
2022-12-14T12:15:36.121Z,98184.44
2022-12-14T12:18:19.456Z,98175.88
2022-12-14T12:21:13.074Z,98164.69
2022-12-14T12:24:03.647Z,98167.09
2022-12-14T12:27:01.272Z,98174.91
2022-12-14T12:29:42.208Z,98169.81
2022-12-14T12:32:23.909Z,98173.25
2022-12-14T12:35:11.090Z,98181.91
2022-12-14T12:37:45.452Z,98190.56
2022-12-14T12:40:22.220Z,98186.34
2022-12-14T12:42:57.136Z,98186.38
2022-12-14T12:45:34.812Z,98190.59
2022-12-14T12:48:13.126Z,98178.56
2022-12-14T12:50:49.672Z,98180.22
2022-12-14T12:53:25.816Z,98171.69
2022-12-14T12:55:56.914Z,98169.94
2022-12-14T12:58:30.709Z,98188.59
2022-12-14T13:01:02.269Z,98195.50
2022-12-14T13:03:39.592Z,98195.56
2022-12-14T13:06:48.762Z,98204.91
2022-12-14T13:09:24.276Z,98216.13
2022-12-14T13:11:50.949Z,98227.31
2022-12-14T13:14:31.709Z,98233.34
2022-12-14T13:17:05.833Z,98233.34
2022-12-14T13:19:55.139Z,98225.50
2022-12-14T13:22:34.491Z,98218.59
2022-12-14T13:25:14.518Z,98226.28
2022-12-14T13:28:22.526Z,98249.50
2022-12-14T13:31:10.984Z,98250.41
2022-12-14T13:33:51.091Z,98245.22
2022-12-14T13:36:36.458Z,98247.78
2022-12-14T13:39:27.696Z,98252.91
2022-12-14T13:42:15.421Z,98251.09
2022-12-14T13:44:58.300Z,98258.75
2022-12-14T13:47:44.809Z,98260.53
2022-12-14T13:50:38.441Z,98267.31
2022-12-14T13:53:24.626Z,98275.00
2022-12-14T13:55:54.345Z,98287.81
2022-12-14T13:58:40.994Z,98286.03
2022-12-14T14:01:22.871Z,98287.72
2022-12-14T14:03:54.541Z,98280.84
2022-12-14T14:06:42.063Z,98282.59
2022-12-14T14:09:26.854Z,98280.03
2022-12-14T14:11:58.427Z,98275.69
2022-12-14T14:14:24.919Z,98284.22
2022-12-14T14:16:57.577Z,98291.09
2022-12-14T14:19:26.306Z,98302.13
2022-12-14T14:22:25.265Z,98315.81
2022-12-14T14:25:00.283Z,98315.88
2022-12-14T14:27:32.527Z,98326.88
2022-12-14T14:29:59.273Z,98334.72
2022-12-14T14:32:39.686Z,98331.28
2022-12-14T14:35:07.745Z,98326.88
2022-12-14T14:37:36.758Z,98336.34
2022-12-14T14:40:43.767Z,98333.00
2022-12-14T14:43:29.200Z,98325.25
2022-12-14T14:46:00.486Z,98333.69
2022-12-14T14:48:38.682Z,98326.88
2022-12-14T14:51:10.932Z,98314.81
2022-12-14T14:53:39.215Z,98325.94
2022-12-14T14:56:33.369Z,98329.34
2022-12-14T14:59:17.808Z,98323.50
2022-12-14T15:01:53.572Z,98320.13
2022-12-14T15:04:26.707Z,98321.84
2022-12-14T15:07:05.814Z,98328.75
2022-12-14T15:09:37.228Z,98328.66
2022-12-14T15:12:33.140Z,98335.63
2022-12-14T15:15:17.126Z,98328.00
2022-12-14T15:17:43.793Z,98308.31
2022-12-14T15:20:21.585Z,98302.38
2022-12-14T15:22:49.479Z,98300.69
2022-12-14T15:25:24.227Z,98295.66
2022-12-14T15:27:51.963Z,98281.03
2022-12-14T15:30:23.517Z,98267.31
2022-12-14T15:33:10.304Z,98268.25
2022-12-14T15:35:40.243Z,98258.88
2022-12-14T15:38:15.086Z,98249.47
2022-12-14T15:40:54.056Z,98236.59
2022-12-14T15:43:22.830Z,98235.75
2022-12-14T15:45:53.207Z,98228.91
2022-12-14T15:48:24.662Z,98217.75
2022-12-14T15:50:57.866Z,98208.34
2022-12-14T15:53:32.201Z,98200.69
2022-12-14T15:56:05.506Z,98200.69
2022-12-14T15:58:39.119Z,98195.63
2022-12-14T16:01:13.844Z,98184.53
2022-12-14T16:03:44.737Z,98171.81
2022-12-14T16:06:13.942Z,98152.88
2022-12-14T16:08:50.167Z,98131.63
2022-12-14T16:11:25.301Z,98108.50
2022-12-14T16:13:52.352Z,98087.13
2022-12-14T16:16:19.337Z,98068.19
2022-12-14T16:18:50.689Z,98060.53
2022-12-14T16:21:33.707Z,98046.91
2022-12-14T16:24:20.977Z,98039.09
2022-12-14T16:26:56.801Z,98040.00
2022-12-14T16:29:28.639Z,98027.22
2022-12-14T16:32:07.354Z,98026.31
2022-12-14T16:34:34.488Z,98029.06
2022-12-14T16:37:31.063Z,98019.69
2022-12-14T16:39:52.501Z,98013.66
2022-12-14T16:42:19.702Z,98003.47
2022-12-14T16:44:47.141Z,97988.97
2022-12-14T16:47:14.599Z,97989.84
2022-12-14T16:49:43.071Z,97984.72
2022-12-14T16:52:09.523Z,97977.06
2022-12-14T16:54:37.882Z,97977.09
2022-12-14T16:57:16.111Z,97962.56
2022-12-14T16:59:45.762Z,97960.91
2022-12-14T17:02:29.899Z,97960.13
2022-12-14T17:04:59.397Z,97956.72
2022-12-14T17:07:29.636Z,97942.28
2022-12-14T17:09:56.679Z,97942.34
2022-12-14T17:12:26.214Z,97939.78
2022-12-14T17:14:53.947Z,97938.16
2022-12-14T17:17:35.366Z,97938.97
2022-12-14T17:20:08.050Z,97933.03
2022-12-14T17:22:38.828Z,97936.44
2022-12-14T17:25:05.980Z,97935.56
2022-12-14T17:27:32.526Z,97927.91
2022-12-14T17:29:59.109Z,97922.78
2022-12-14T17:32:30.224Z,97921.94
2022-12-14T17:34:57.795Z,97933.13
2022-12-14T17:37:26.820Z,97921.13
2022-12-14T17:39:55.191Z,97928.06
2022-12-14T17:42:22.391Z,97929.78
2022-12-14T17:44:54.509Z,97916.13
2022-12-14T17:47:22.487Z,97923.03
2022-12-14T17:49:48.982Z,97927.34
2022-12-14T17:52:29.054Z,97913.59
2022-12-14T17:54:55.550Z,97910.16
2022-12-14T17:57:24.591Z,97902.47
2022-12-14T18:00:14.517Z,97909.38
2022-12-14T18:02:42.406Z,97897.38
2022-12-14T18:05:19.757Z,97903.28
2022-12-14T18:07:46.380Z,97902.53
2022-12-14T18:10:18.061Z,97900.78
2022-12-14T18:12:44.778Z,97899.19
2022-12-14T18:15:18.392Z,97888.97
2022-12-14T18:17:44.952Z,97890.66
2022-12-14T18:20:16.022Z,97883.84
2022-12-14T18:22:42.569Z,97880.38
2022-12-14T18:25:30.836Z,97878.78
2022-12-14T18:27:59.048Z,97876.19
2022-12-14T18:30:27.182Z,97878.81
2022-12-14T18:32:55.232Z,97874.53
2022-12-14T18:35:26.082Z,97872.84
2022-12-14T18:37:53.247Z,97872.03
2022-12-14T18:40:23.840Z,97860.97
2022-12-14T18:42:51.297Z,97872.13
2022-12-14T18:45:26.604Z,97876.38
2022-12-14T18:47:54.372Z,97875.53
2022-12-14T18:50:22.033Z,97872.16
2022-12-14T18:52:48.951Z,97875.59
2022-12-14T18:55:26.808Z,97874.72
2022-12-14T18:57:56.605Z,97872.19
2022-12-14T19:00:26.644Z,97857.63
2022-12-14T19:02:58.215Z,97856.75
2022-12-14T19:05:26.401Z,97861.03
2022-12-14T19:07:53.978Z,97866.16
2022-12-14T19:10:23.700Z,97860.16
2022-12-14T19:12:51.344Z,97856.03
2022-12-14T19:15:24.228Z,97853.41
2022-12-14T19:17:51.136Z,97852.63
2022-12-14T19:20:18.782Z,97853.44
2022-12-14T19:22:47.045Z,97858.59
2022-12-14T19:25:14.543Z,97864.59
2022-12-14T19:28:25.701Z,97867.16
2022-12-14T19:30:28.265Z,97864.56
2022-12-14T19:32:58.794Z,97870.56
2022-12-14T19:35:26.364Z,97868.84
2022-12-14T19:37:53.092Z,97866.28
2022-12-14T19:40:21.188Z,97863.78
2022-12-14T19:42:48.162Z,97872.25
2022-12-14T19:45:16.395Z,97873.94
2022-12-14T19:47:44.130Z,97872.31
2022-12-14T19:50:13.427Z,97876.56
2022-12-14T19:52:41.308Z,97871.38
2022-12-14T19:55:08.540Z,97866.31
2022-12-14T19:57:36.098Z,97865.41
2022-12-14T20:00:02.936Z,97866.38
2022-12-14T20:02:29.536Z,97867.22
2022-12-14T20:04:56.351Z,97868.06
2022-12-14T20:07:22.889Z,97863.75
2022-12-14T20:09:49.452Z,97857.78
2022-12-14T20:12:16.069Z,97862.88
2022-12-14T20:14:42.872Z,97863.69
2022-12-14T20:17:10.979Z,97855.94
2022-12-14T20:19:39.471Z,97855.16
2022-12-14T20:22:07.805Z,97848.31
2022-12-14T20:24:34.961Z,97845.75
2022-12-14T20:27:01.568Z,97847.47
2022-12-14T20:29:28.354Z,97839.75
2022-12-14T20:31:55.337Z,97837.13
2022-12-14T20:34:22.516Z,97837.13
2022-12-14T20:36:49.450Z,97842.25
2022-12-14T20:39:16.134Z,97829.44
2022-12-14T20:41:43.604Z,97829.38
2022-12-14T20:44:14.478Z,97832.91
2022-12-14T20:46:44.703Z,97825.19
2022-12-14T20:49:18.045Z,97832.06
2022-12-14T20:51:46.002Z,97834.63
2022-12-14T20:54:15.921Z,97820.91
2022-12-14T20:56:44.175Z,97811.50
2022-12-14T20:59:11.258Z,97827.75
2022-12-14T21:01:39.849Z,97814.97
2022-12-14T21:04:07.243Z,97818.34
2022-12-14T21:06:40.059Z,97811.50
2022-12-14T21:09:11.897Z,97805.53
2022-12-14T21:12:07.242Z,97808.94
2022-12-14T21:14:42.548Z,97795.28
2022-12-14T21:17:10.208Z,97799.59
2022-12-14T21:19:37.168Z,97804.69
2022-12-14T21:22:05.397Z,97793.53
2022-12-14T21:27:22.455Z,97786.69
2022-12-14T21:29:49.609Z,97790.19
2022-12-14T21:32:18.415Z,97782.44
2022-12-14T21:34:45.888Z,97791.03
2022-12-14T21:37:13.361Z,97796.19
2022-12-14T21:39:39.912Z,97794.50
2022-12-14T21:42:13.483Z,97791.09
2022-12-14T21:44:44.857Z,97780.03
2022-12-14T21:47:17.622Z,97771.53
2022-12-14T21:49:46.021Z,97770.63
2022-12-14T21:52:16.043Z,97769.78
2022-12-14T21:54:43.224Z,97766.38
2022-12-14T21:57:36.491Z,97758.69
2022-12-14T22:00:04.794Z,97754.41
2022-12-14T22:02:31.623Z,97752.75
2022-12-14T22:04:58.270Z,97737.34
2022-12-14T22:07:30.679Z,97733.06
2022-12-14T22:09:57.539Z,97729.69
2022-12-14T22:12:24.324Z,97721.13
2022-12-14T22:14:50.863Z,97712.59
2022-12-14T22:17:17.932Z,97720.22
2022-12-14T22:19:44.525Z,97719.44
2022-12-14T22:22:17.267Z,97711.66
2022-12-14T22:24:45.060Z,97721.94
2022-12-14T22:27:12.797Z,97722.03
2022-12-14T22:29:39.649Z,97721.06
2022-12-14T22:32:07.132Z,97721.16
2022-12-14T22:34:33.911Z,97724.50
2022-12-14T22:37:00.376Z,97714.28
2022-12-14T22:39:26.955Z,97716.91
2022-12-14T22:41:53.511Z,97708.34
2022-12-14T22:44:20.044Z,97715.94
2022-12-14T22:46:46.761Z,97713.47
2022-12-14T22:49:18.323Z,97706.63
2022-12-14T22:51:45.571Z,97706.63
2022-12-14T22:54:23.864Z,97698.19
2022-12-14T22:56:59.548Z,97696.53
2022-12-14T22:59:33.885Z,97685.38
2022-12-14T23:02:00.676Z,97697.28
2022-12-14T23:04:27.388Z,97704.25
2022-12-14T23:06:54.597Z,97709.28
2022-12-14T23:09:39.794Z,97707.56
2022-12-14T23:12:25.153Z,97714.34
2022-12-14T23:15:10.026Z,97708.47
2022-12-14T23:17:55.288Z,97710.09
2022-12-14T23:20:40.741Z,97707.59
2022-12-14T23:23:27.220Z,97704.97
2022-12-14T23:26:12.794Z,97705.81
2022-12-14T23:28:58.142Z,97696.53
2022-12-14T23:31:43.540Z,97688.78
2022-12-14T23:34:28.401Z,97685.31
2022-12-14T23:37:18.212Z,97691.44
2022-12-14T23:40:05.636Z,97688.81
2022-12-14T23:42:50.821Z,97686.22
2022-12-14T23:45:36.038Z,97693.91
2022-12-14T23:48:21.412Z,97696.47
2022-12-14T23:51:06.223Z,97709.25
2022-12-14T23:53:51.300Z,97706.59
2022-12-14T23:56:36.664Z,97713.47
2022-12-14T23:59:26.379Z,97701.44
